Jansen, Canada
Current Conditions -  °F | °C
As of 2:00 PM on Friday 31 Oct 2014 (Local Time) from CYXE Reporting Station
Broken Clouds Broken Clouds  
Wind Chill: 36°   Ceiling: 30000
Heat Index: 45°   Visibility: 15mi
Dew Point: 32°   Wind: 24mph
Humidity: 61%   Direction: 160°SSE
Pressure: 29.82"   Gusts: 31mph
Location:  51.78°N, 104.72°W
Report Text: CYXE 312000Z 16021G27KT 15SM SCT170 BKN300 07/00 A2982 RMK AC3CI4 PRESFR SLP121
Loading
Personal Weather Stations






























Interactive Weather Map
Tropical Storm Tracking
New forecast layout! Learn more

10-Day Weather Forecast

Advertisements
Track Severe Weather on mobile